sensor_id;sensor_type;location;lat;lon;timestamp;P1;durP1;ratioP1;P2;durP2;ratioP2
71513;SDS011;59335;46.652;21.272;2022-12-11T00:01:27;6.13;;;3.72;;
71513;SDS011;59335;46.652;21.272;2022-12-11T00:04:30;6.30;;;3.50;;
71513;SDS011;59335;46.652;21.272;2022-12-11T00:07:33;7.57;;;3.83;;
71513;SDS011;59335;46.652;21.272;2022-12-11T00:10:36;6.40;;;3.60;;
71513;SDS011;59335;46.652;21.272;2022-12-11T00:13:39;6.30;;;3.47;;
71513;SDS011;59335;46.652;21.272;2022-12-11T00:16:42;6.72;;;3.83;;
71513;SDS011;59335;46.652;21.272;2022-12-11T00:19:44;6.90;;;3.88;;
71513;SDS011;59335;46.652;21.272;2022-12-11T00:22:47;6.90;;;3.60;;
71513;SDS011;59335;46.652;21.272;2022-12-11T00:25:50;6.28;;;3.42;;
71513;SDS011;59335;46.652;21.272;2022-12-11T00:28:54;6.10;;;3.80;;
71513;SDS011;59335;46.652;21.272;2022-12-11T00:31:58;5.65;;;3.13;;
71513;SDS011;59335;46.652;21.272;2022-12-11T00:35:01;6.32;;;3.28;;
71513;SDS011;59335;46.652;21.272;2022-12-11T00:38:03;5.72;;;3.08;;
71513;SDS011;59335;46.652;21.272;2022-12-11T00:41:06;5.60;;;3.45;;
71513;SDS011;59335;46.652;21.272;2022-12-11T00:44:09;6.27;;;3.23;;
71513;SDS011;59335;46.652;21.272;2022-12-11T00:47:12;6.90;;;3.50;;
71513;SDS011;59335;46.652;21.272;2022-12-11T00:50:15;6.15;;;3.40;;
71513;SDS011;59335;46.652;21.272;2022-12-11T00:59:26;5.40;;;3.10;;
71513;SDS011;59335;46.652;21.272;2022-12-11T01:08:39;5.25;;;2.92;;
71513;SDS011;59335;46.652;21.272;2022-12-11T01:11:42;6.05;;;3.15;;
71513;SDS011;59335;46.652;21.272;2022-12-11T01:14:45;5.45;;;2.63;;
71513;SDS011;59335;46.652;21.272;2022-12-11T01:17:48;5.97;;;2.80;;
71513;SDS011;59335;46.652;21.272;2022-12-11T01:20:51;6.07;;;3.07;;
71513;SDS011;59335;46.652;21.272;2022-12-11T01:23:54;5.68;;;3.28;;
71513;SDS011;59335;46.652;21.272;2022-12-11T01:26:57;5.78;;;3.00;;
71513;SDS011;59335;46.652;21.272;2022-12-11T01:30:00;5.93;;;3.33;;
71513;SDS011;59335;46.652;21.272;2022-12-11T01:33:03;5.30;;;2.83;;
71513;SDS011;59335;46.652;21.272;2022-12-11T01:36:13;6.03;;;2.80;;
71513;SDS011;59335;46.652;21.272;2022-12-11T01:39:20;5.47;;;2.92;;
71513;SDS011;59335;46.652;21.272;2022-12-11T01:42:22;5.95;;;2.78;;
71513;SDS011;59335;46.652;21.272;2022-12-11T01:45:31;5.05;;;2.60;;
71513;SDS011;59335;46.652;21.272;2022-12-11T01:48:40;5.30;;;2.50;;
71513;SDS011;59335;46.652;21.272;2022-12-11T01:54:54;5.43;;;3.05;;
71513;SDS011;59335;46.652;21.272;2022-12-11T01:57:57;5.20;;;2.60;;
71513;SDS011;59335;46.652;21.272;2022-12-11T02:01:00;4.97;;;2.47;;
71513;SDS011;59335;46.652;21.272;2022-12-11T02:04:05;5.30;;;2.60;;
71513;SDS011;59335;46.652;21.272;2022-12-11T02:07:09;4.83;;;2.40;;
71513;SDS011;59335;46.652;21.272;2022-12-11T02:10:13;5.65;;;2.78;;
71513;SDS011;59335;46.652;21.272;2022-12-11T02:13:20;5.00;;;2.75;;
71513;SDS011;59335;46.652;21.272;2022-12-11T02:16:38;5.38;;;2.47;;
71513;SDS011;59335;46.652;21.272;2022-12-11T02:26:20;4.45;;;2.20;;
71513;SDS011;59335;46.652;21.272;2022-12-11T02:29:37;4.63;;;2.40;;
71513;SDS011;59335;46.652;21.272;2022-12-11T02:32:52;3.88;;;2.30;;
71513;SDS011;59335;46.652;21.272;2022-12-11T02:35:56;4.78;;;2.60;;
71513;SDS011;59335;46.652;21.272;2022-12-11T02:39:00;4.10;;;2.30;;
71513;SDS011;59335;46.652;21.272;2022-12-11T02:42:04;4.88;;;2.30;;
71513;SDS011;59335;46.652;21.272;2022-12-11T02:45:09;5.38;;;2.50;;
71513;SDS011;59335;46.652;21.272;2022-12-11T02:48:14;4.65;;;2.15;;
71513;SDS011;59335;46.652;21.272;2022-12-11T02:51:20;5.05;;;2.30;;
71513;SDS011;59335;46.652;21.272;2022-12-11T02:54:32;4.60;;;2.40;;
71513;SDS011;59335;46.652;21.272;2022-12-11T02:57:40;4.40;;;2.20;;
71513;SDS011;59335;46.652;21.272;2022-12-11T03:00:46;4.13;;;2.30;;
71513;SDS011;59335;46.652;21.272;2022-12-11T03:03:49;4.40;;;2.20;;
71513;SDS011;59335;46.652;21.272;2022-12-11T03:06:52;4.15;;;2.17;;
71513;SDS011;59335;46.652;21.272;2022-12-11T03:09:57;4.37;;;2.30;;
71513;SDS011;59335;46.652;21.272;2022-12-11T03:12:59;4.53;;;1.85;;
71513;SDS011;59335;46.652;21.272;2022-12-11T03:26:09;3.53;;;1.90;;
71513;SDS011;59335;46.652;21.272;2022-12-11T03:29:21;3.85;;;2.10;;
71513;SDS011;59335;46.652;21.272;2022-12-11T03:32:28;3.45;;;2.05;;
71513;SDS011;59335;46.652;21.272;2022-12-11T03:35:55;3.42;;;1.90;;
71513;SDS011;59335;46.652;21.272;2022-12-11T03:39:01;4.07;;;2.00;;
71513;SDS011;59335;46.652;21.272;2022-12-11T03:42:09;4.37;;;2.20;;
71513;SDS011;59335;46.652;21.272;2022-12-11T03:45:13;4.05;;;1.90;;
71513;SDS011;59335;46.652;21.272;2022-12-11T03:48:19;4.13;;;1.90;;
71513;SDS011;59335;46.652;21.272;2022-12-11T03:51:22;4.70;;;2.00;;
71513;SDS011;59335;46.652;21.272;2022-12-11T03:54:26;4.53;;;2.42;;
71513;SDS011;59335;46.652;21.272;2022-12-11T03:57:30;3.70;;;1.97;;
71513;SDS011;59335;46.652;21.272;2022-12-11T04:00:37;4.45;;;2.40;;
71513;SDS011;59335;46.652;21.272;2022-12-11T04:03:40;4.45;;;2.28;;
71513;SDS011;59335;46.652;21.272;2022-12-11T04:06:42;4.30;;;2.20;;
71513;SDS011;59335;46.652;21.272;2022-12-11T04:09:45;3.90;;;2.20;;
71513;SDS011;59335;46.652;21.272;2022-12-11T04:12:48;5.13;;;2.23;;
71513;SDS011;59335;46.652;21.272;2022-12-11T04:15:50;4.22;;;2.00;;
71513;SDS011;59335;46.652;21.272;2022-12-11T04:18:53;4.78;;;2.40;;
71513;SDS011;59335;46.652;21.272;2022-12-11T04:22:15;4.40;;;2.00;;
71513;SDS011;59335;46.652;21.272;2022-12-11T04:25:38;4.07;;;2.00;;
71513;SDS011;59335;46.652;21.272;2022-12-11T04:28:41;4.07;;;1.90;;
71513;SDS011;59335;46.652;21.272;2022-12-11T04:31:44;4.03;;;2.00;;
71513;SDS011;59335;46.652;21.272;2022-12-11T04:34:47;3.58;;;1.98;;
71513;SDS011;59335;46.652;21.272;2022-12-11T04:37:50;4.88;;;2.15;;
71513;SDS011;59335;46.652;21.272;2022-12-11T04:40:58;3.95;;;1.95;;
71513;SDS011;59335;46.652;21.272;2022-12-11T04:44:05;3.70;;;1.87;;
71513;SDS011;59335;46.652;21.272;2022-12-11T04:47:09;4.18;;;1.92;;
71513;SDS011;59335;46.652;21.272;2022-12-11T04:50:16;4.57;;;2.10;;
71513;SDS011;59335;46.652;21.272;2022-12-11T04:53:18;3.78;;;1.90;;
71513;SDS011;59335;46.652;21.272;2022-12-11T04:56:21;3.92;;;1.88;;
71513;SDS011;59335;46.652;21.272;2022-12-11T04:59:24;4.13;;;1.87;;
71513;SDS011;59335;46.652;21.272;2022-12-11T05:02:26;4.55;;;1.75;;
71513;SDS011;59335;46.652;21.272;2022-12-11T05:05:29;3.50;;;1.70;;
71513;SDS011;59335;46.652;21.272;2022-12-11T05:08:33;4.22;;;1.90;;
71513;SDS011;59335;46.652;21.272;2022-12-11T05:11:37;3.40;;;2.00;;
71513;SDS011;59335;46.652;21.272;2022-12-11T05:14:40;4.03;;;1.97;;
71513;SDS011;59335;46.652;21.272;2022-12-11T05:17:43;3.45;;;1.55;;
71513;SDS011;59335;46.652;21.272;2022-12-11T05:20:53;3.65;;;1.90;;
71513;SDS011;59335;46.652;21.272;2022-12-11T05:23:57;4.07;;;2.03;;
71513;SDS011;59335;46.652;21.272;2022-12-11T05:27:00;3.95;;;1.90;;
71513;SDS011;59335;46.652;21.272;2022-12-11T05:30:02;4.40;;;1.70;;
71513;SDS011;59335;46.652;21.272;2022-12-11T05:33:05;3.45;;;1.80;;
71513;SDS011;59335;46.652;21.272;2022-12-11T05:36:08;3.70;;;1.92;;
71513;SDS011;59335;46.652;21.272;2022-12-11T05:39:16;3.80;;;1.90;;
71513;SDS011;59335;46.652;21.272;2022-12-11T05:42:19;4.18;;;2.00;;
71513;SDS011;59335;46.652;21.272;2022-12-11T05:45:29;3.37;;;1.83;;
71513;SDS011;59335;46.652;21.272;2022-12-11T05:48:32;3.50;;;1.67;;
71513;SDS011;59335;46.652;21.272;2022-12-11T05:51:35;4.28;;;1.98;;
71513;SDS011;59335;46.652;21.272;2022-12-11T05:54:40;4.03;;;1.60;;
71513;SDS011;59335;46.652;21.272;2022-12-11T05:57:43;3.33;;;1.80;;
71513;SDS011;59335;46.652;21.272;2022-12-11T06:00:46;3.40;;;1.77;;
71513;SDS011;59335;46.652;21.272;2022-12-11T06:03:49;3.17;;;1.60;;
71513;SDS011;59335;46.652;21.272;2022-12-11T06:06:55;4.30;;;2.00;;
71513;SDS011;59335;46.652;21.272;2022-12-11T06:09:57;3.63;;;1.73;;
71513;SDS011;59335;46.652;21.272;2022-12-11T06:13:00;3.65;;;1.83;;
71513;SDS011;59335;46.652;21.272;2022-12-11T06:16:03;3.63;;;1.70;;
71513;SDS011;59335;46.652;21.272;2022-12-11T06:19:11;3.28;;;1.60;;
71513;SDS011;59335;46.652;21.272;2022-12-11T06:22:16;3.25;;;1.73;;
71513;SDS011;59335;46.652;21.272;2022-12-11T06:25:18;3.50;;;1.98;;
71513;SDS011;59335;46.652;21.272;2022-12-11T06:28:21;3.33;;;2.00;;
71513;SDS011;59335;46.652;21.272;2022-12-11T06:31:23;4.07;;;1.73;;
71513;SDS011;59335;46.652;21.272;2022-12-11T06:34:26;2.72;;;1.63;;
71513;SDS011;59335;46.652;21.272;2022-12-11T06:37:29;3.05;;;1.75;;
71513;SDS011;59335;46.652;21.272;2022-12-11T06:40:31;4.05;;;1.77;;
71513;SDS011;59335;46.652;21.272;2022-12-11T06:43:35;3.17;;;1.75;;
71513;SDS011;59335;46.652;21.272;2022-12-11T06:46:38;3.30;;;1.53;;
71513;SDS011;59335;46.652;21.272;2022-12-11T06:49:41;2.92;;;1.58;;
71513;SDS011;59335;46.652;21.272;2022-12-11T06:52:44;3.78;;;1.75;;
71513;SDS011;59335;46.652;21.272;2022-12-11T06:55:47;4.03;;;1.80;;
71513;SDS011;59335;46.652;21.272;2022-12-11T06:58:49;3.22;;;1.73;;
71513;SDS011;59335;46.652;21.272;2022-12-11T07:01:53;3.53;;;1.90;;
71513;SDS011;59335;46.652;21.272;2022-12-11T07:04:55;3.28;;;1.60;;
71513;SDS011;59335;46.652;21.272;2022-12-11T07:07:58;2.97;;;1.60;;
71513;SDS011;59335;46.652;21.272;2022-12-11T07:11:02;4.10;;;1.70;;
71513;SDS011;59335;46.652;21.272;2022-12-11T07:14:10;4.05;;;1.80;;
71513;SDS011;59335;46.652;21.272;2022-12-11T07:17:13;3.07;;;1.57;;
71513;SDS011;59335;46.652;21.272;2022-12-11T07:20:16;3.00;;;1.60;;
71513;SDS011;59335;46.652;21.272;2022-12-11T07:23:18;3.55;;;1.88;;
71513;SDS011;59335;46.652;21.272;2022-12-11T07:26:21;3.15;;;1.70;;
71513;SDS011;59335;46.652;21.272;2022-12-11T07:29:24;3.97;;;1.90;;
71513;SDS011;59335;46.652;21.272;2022-12-11T07:32:26;3.67;;;1.70;;
71513;SDS011;59335;46.652;21.272;2022-12-11T07:35:30;3.35;;;1.77;;
71513;SDS011;59335;46.652;21.272;2022-12-11T07:38:35;3.40;;;1.63;;
71513;SDS011;59335;46.652;21.272;2022-12-11T07:41:38;2.78;;;1.50;;
71513;SDS011;59335;46.652;21.272;2022-12-11T07:44:45;3.63;;;1.52;;
71513;SDS011;59335;46.652;21.272;2022-12-11T07:47:47;2.93;;;1.47;;
71513;SDS011;59335;46.652;21.272;2022-12-11T07:50:50;3.30;;;1.50;;
71513;SDS011;59335;46.652;21.272;2022-12-11T07:53:54;3.22;;;1.50;;
71513;SDS011;59335;46.652;21.272;2022-12-11T07:56:58;3.67;;;1.70;;
71513;SDS011;59335;46.652;21.272;2022-12-11T08:00:01;3.33;;;1.40;;
71513;SDS011;59335;46.652;21.272;2022-12-11T08:03:13;3.40;;;1.50;;
71513;SDS011;59335;46.652;21.272;2022-12-11T08:06:16;3.05;;;1.70;;
71513;SDS011;59335;46.652;21.272;2022-12-11T08:09:19;3.03;;;1.52;;
71513;SDS011;59335;46.652;21.272;2022-12-11T08:12:23;3.28;;;1.48;;
71513;SDS011;59335;46.652;21.272;2022-12-11T08:15:26;3.88;;;1.60;;
71513;SDS011;59335;46.652;21.272;2022-12-11T08:18:28;3.23;;;1.50;;
71513;SDS011;59335;46.652;21.272;2022-12-11T08:21:31;3.72;;;1.80;;
71513;SDS011;59335;46.652;21.272;2022-12-11T08:24:34;4.22;;;1.85;;
71513;SDS011;59335;46.652;21.272;2022-12-11T08:27:36;3.15;;;1.42;;
71513;SDS011;59335;46.652;21.272;2022-12-11T08:30:39;3.80;;;1.75;;
71513;SDS011;59335;46.652;21.272;2022-12-11T08:33:42;3.57;;;1.60;;
71513;SDS011;59335;46.652;21.272;2022-12-11T08:36:45;3.13;;;1.38;;
71513;SDS011;59335;46.652;21.272;2022-12-11T08:39:48;3.33;;;1.50;;
71513;SDS011;59335;46.652;21.272;2022-12-11T08:42:50;3.13;;;1.40;;
71513;SDS011;59335;46.652;21.272;2022-12-11T08:45:53;3.63;;;1.55;;
71513;SDS011;59335;46.652;21.272;2022-12-11T08:48:56;3.33;;;1.43;;
71513;SDS011;59335;46.652;21.272;2022-12-11T08:51:59;2.55;;;1.40;;
71513;SDS011;59335;46.652;21.272;2022-12-11T08:55:02;3.78;;;1.60;;
71513;SDS011;59335;46.652;21.272;2022-12-11T08:58:05;3.28;;;1.42;;
71513;SDS011;59335;46.652;21.272;2022-12-11T09:01:11;3.08;;;1.52;;
71513;SDS011;59335;46.652;21.272;2022-12-11T09:04:15;3.20;;;1.50;;
71513;SDS011;59335;46.652;21.272;2022-12-11T09:07:18;2.78;;;1.58;;
71513;SDS011;59335;46.652;21.272;2022-12-11T09:10:20;2.90;;;1.50;;
71513;SDS011;59335;46.652;21.272;2022-12-11T09:13:23;3.50;;;1.63;;
71513;SDS011;59335;46.652;21.272;2022-12-11T09:16:26;2.90;;;1.58;;
71513;SDS011;59335;46.652;21.272;2022-12-11T09:19:30;3.37;;;1.60;;
71513;SDS011;59335;46.652;21.272;2022-12-11T09:22:36;3.05;;;1.50;;
71513;SDS011;59335;46.652;21.272;2022-12-11T09:25:39;3.85;;;1.60;;
71513;SDS011;59335;46.652;21.272;2022-12-11T09:28:42;2.85;;;1.35;;
71513;SDS011;59335;46.652;21.272;2022-12-11T09:31:48;3.53;;;1.63;;
71513;SDS011;59335;46.652;21.272;2022-12-11T09:34:50;2.83;;;1.60;;
71513;SDS011;59335;46.652;21.272;2022-12-11T09:37:53;3.45;;;1.70;;
71513;SDS011;59335;46.652;21.272;2022-12-11T09:40:56;3.80;;;1.88;;
71513;SDS011;59335;46.652;21.272;2022-12-11T09:47:37;3.17;;;1.77;;
71513;SDS011;59335;46.652;21.272;2022-12-11T09:50:47;3.53;;;1.60;;
71513;SDS011;59335;46.652;21.272;2022-12-11T09:53:53;3.67;;;1.55;;
71513;SDS011;59335;46.652;21.272;2022-12-11T10:03:39;3.47;;;1.70;;
71513;SDS011;59335;46.652;21.272;2022-12-11T10:10:11;4.25;;;1.88;;
71513;SDS011;59335;46.652;21.272;2022-12-11T10:17:42;3.38;;;1.77;;
71513;SDS011;59335;46.652;21.272;2022-12-11T10:20:30;3.35;;;1.55;;
71513;SDS011;59335;46.652;21.272;2022-12-11T10:23:49;3.00;;;1.63;;
71513;SDS011;59335;46.652;21.272;2022-12-11T10:26:57;2.72;;;1.40;;
71513;SDS011;59335;46.652;21.272;2022-12-11T10:36:12;3.17;;;1.63;;
71513;SDS011;59335;46.652;21.272;2022-12-11T10:39:21;2.87;;;1.70;;
71513;SDS011;59335;46.652;21.272;2022-12-11T10:42:24;3.72;;;1.60;;
71513;SDS011;59335;46.652;21.272;2022-12-11T10:45:27;3.38;;;1.55;;
71513;SDS011;59335;46.652;21.272;2022-12-11T10:48:29;3.80;;;1.80;;
71513;SDS011;59335;46.652;21.272;2022-12-11T10:51:33;3.60;;;1.80;;
71513;SDS011;59335;46.652;21.272;2022-12-11T10:54:46;3.60;;;1.70;;
71513;SDS011;59335;46.652;21.272;2022-12-11T10:57:59;4.53;;;1.88;;
71513;SDS011;59335;46.652;21.272;2022-12-11T11:01:05;4.35;;;1.80;;
71513;SDS011;59335;46.652;21.272;2022-12-11T11:04:14;4.65;;;2.15;;
71513;SDS011;59335;46.652;21.272;2022-12-11T11:07:27;4.60;;;2.13;;
71513;SDS011;59335;46.652;21.272;2022-12-11T11:10:33;3.90;;;1.93;;
71513;SDS011;59335;46.652;21.272;2022-12-11T11:13:37;3.95;;;1.75;;
71513;SDS011;59335;46.652;21.272;2022-12-11T11:16:40;4.43;;;1.92;;
71513;SDS011;59335;46.652;21.272;2022-12-11T11:19:46;3.97;;;2.05;;
71513;SDS011;59335;46.652;21.272;2022-12-11T11:22:50;4.00;;;1.83;;
71513;SDS011;59335;46.652;21.272;2022-12-11T11:25:57;4.53;;;2.03;;
71513;SDS011;59335;46.652;21.272;2022-12-11T11:29:01;4.00;;;1.65;;
71513;SDS011;59335;46.652;21.272;2022-12-11T11:35:17;4.03;;;1.52;;
71513;SDS011;59335;46.652;21.272;2022-12-11T11:38:26;3.58;;;1.77;;
71513;SDS011;59335;46.652;21.272;2022-12-11T11:41:37;4.57;;;1.90;;
71513;SDS011;59335;46.652;21.272;2022-12-11T11:48:34;5.43;;;2.10;;
71513;SDS011;59335;46.652;21.272;2022-12-11T11:51:49;4.45;;;1.90;;
71513;SDS011;59335;46.652;21.272;2022-12-11T11:58:36;5.20;;;2.00;;
71513;SDS011;59335;46.652;21.272;2022-12-11T12:01:44;4.50;;;2.05;;
71513;SDS011;59335;46.652;21.272;2022-12-11T12:04:48;5.32;;;2.28;;
71513;SDS011;59335;46.652;21.272;2022-12-11T12:18:25;4.82;;;2.20;;
71513;SDS011;59335;46.652;21.272;2022-12-11T12:21:44;5.15;;;2.28;;
71513;SDS011;59335;46.652;21.272;2022-12-11T12:28:15;4.72;;;2.20;;
71513;SDS011;59335;46.652;21.272;2022-12-11T12:31:47;5.60;;;2.10;;
71513;SDS011;59335;46.652;21.272;2022-12-11T12:38:16;5.10;;;2.20;;
71513;SDS011;59335;46.652;21.272;2022-12-11T12:41:56;6.75;;;2.30;;
71513;SDS011;59335;46.652;21.272;2022-12-11T12:45:47;5.32;;;2.17;;
71513;SDS011;59335;46.652;21.272;2022-12-11T12:48:56;4.33;;;2.10;;
71513;SDS011;59335;46.652;21.272;2022-12-11T12:52:01;4.63;;;2.13;;
71513;SDS011;59335;46.652;21.272;2022-12-11T12:58:26;4.43;;;2.10;;
71513;SDS011;59335;46.652;21.272;2022-12-11T13:01:32;4.55;;;2.13;;
71513;SDS011;59335;46.652;21.272;2022-12-11T13:04:39;4.00;;;1.93;;
71513;SDS011;59335;46.652;21.272;2022-12-11T13:07:58;4.53;;;2.05;;
71513;SDS011;59335;46.652;21.272;2022-12-11T13:11:06;5.15;;;2.20;;
71513;SDS011;59335;46.652;21.272;2022-12-11T13:20:27;4.50;;;2.17;;
71513;SDS011;59335;46.652;21.272;2022-12-11T13:23:32;3.63;;;1.80;;
71513;SDS011;59335;46.652;21.272;2022-12-11T13:26:36;5.20;;;2.13;;
71513;SDS011;59335;46.652;21.272;2022-12-11T13:29:40;5.15;;;2.50;;
71513;SDS011;59335;46.652;21.272;2022-12-11T13:32:55;5.43;;;2.40;;
71513;SDS011;59335;46.652;21.272;2022-12-11T13:36:24;5.00;;;2.30;;
71513;SDS011;59335;46.652;21.272;2022-12-11T13:39:34;4.40;;;2.20;;
71513;SDS011;59335;46.652;21.272;2022-12-11T13:42:47;5.20;;;2.28;;
71513;SDS011;59335;46.652;21.272;2022-12-11T13:45:51;5.50;;;2.53;;
71513;SDS011;59335;46.652;21.272;2022-12-11T13:49:00;5.05;;;2.50;;
71513;SDS011;59335;46.652;21.272;2022-12-11T13:52:06;4.40;;;2.07;;
71513;SDS011;59335;46.652;21.272;2022-12-11T13:55:16;5.28;;;2.47;;
71513;SDS011;59335;46.652;21.272;2022-12-11T13:58:26;6.85;;;2.53;;
71513;SDS011;59335;46.652;21.272;2022-12-11T14:01:30;7.90;;;3.00;;
71513;SDS011;59335;46.652;21.272;2022-12-11T14:04:35;6.93;;;3.10;;
71513;SDS011;59335;46.652;21.272;2022-12-11T14:07:45;6.30;;;2.90;;
71513;SDS011;59335;46.652;21.272;2022-12-11T14:10:51;6.18;;;2.90;;
71513;SDS011;59335;46.652;21.272;2022-12-11T14:13:55;6.20;;;3.20;;
71513;SDS011;59335;46.652;21.272;2022-12-11T14:17:00;6.18;;;2.72;;
71513;SDS011;59335;46.652;21.272;2022-12-11T14:20:03;6.03;;;2.78;;
71513;SDS011;59335;46.652;21.272;2022-12-11T14:23:16;6.00;;;2.70;;
71513;SDS011;59335;46.652;21.272;2022-12-11T14:26:27;5.75;;;2.70;;
71513;SDS011;59335;46.652;21.272;2022-12-11T14:29:32;6.25;;;3.05;;
71513;SDS011;59335;46.652;21.272;2022-12-11T14:32:35;5.90;;;2.80;;
71513;SDS011;59335;46.652;21.272;2022-12-11T14:35:44;5.85;;;3.00;;
71513;SDS011;59335;46.652;21.272;2022-12-11T14:38:51;5.60;;;2.67;;
71513;SDS011;59335;46.652;21.272;2022-12-11T14:42:17;5.60;;;2.60;;
71513;SDS011;59335;46.652;21.272;2022-12-11T14:48:42;6.72;;;3.10;;
71513;SDS011;59335;46.652;21.272;2022-12-11T14:51:49;5.85;;;2.80;;
71513;SDS011;59335;46.652;21.272;2022-12-11T14:54:56;6.23;;;2.47;;
71513;SDS011;59335;46.652;21.272;2022-12-11T14:58:15;6.35;;;2.80;;
71513;SDS011;59335;46.652;21.272;2022-12-11T15:01:30;6.40;;;2.72;;
71513;SDS011;59335;46.652;21.272;2022-12-11T15:04:35;5.13;;;2.50;;
71513;SDS011;59335;46.652;21.272;2022-12-11T15:07:38;5.90;;;2.95;;
71513;SDS011;59335;46.652;21.272;2022-12-11T15:10:54;5.97;;;2.90;;
71513;SDS011;59335;46.652;21.272;2022-12-11T15:14:02;6.82;;;3.40;;
71513;SDS011;59335;46.652;21.272;2022-12-11T15:17:09;6.75;;;2.72;;
71513;SDS011;59335;46.652;21.272;2022-12-11T15:20:25;7.00;;;3.30;;
71513;SDS011;59335;46.652;21.272;2022-12-11T15:23:30;5.65;;;3.10;;
71513;SDS011;59335;46.652;21.272;2022-12-11T15:29:41;7.15;;;3.10;;
71513;SDS011;59335;46.652;21.272;2022-12-11T15:32:44;6.00;;;3.22;;
71513;SDS011;59335;46.652;21.272;2022-12-11T15:39:01;6.05;;;3.10;;
71513;SDS011;59335;46.652;21.272;2022-12-11T15:42:06;7.27;;;3.20;;
71513;SDS011;59335;46.652;21.272;2022-12-11T15:45:16;6.15;;;3.10;;
71513;SDS011;59335;46.652;21.272;2022-12-11T15:48:20;6.30;;;3.15;;
71513;SDS011;59335;46.652;21.272;2022-12-11T15:51:23;6.95;;;3.42;;
71513;SDS011;59335;46.652;21.272;2022-12-11T15:54:28;6.53;;;3.45;;
71513;SDS011;59335;46.652;21.272;2022-12-11T15:57:31;6.77;;;3.60;;
71513;SDS011;59335;46.652;21.272;2022-12-11T16:00:34;7.03;;;3.60;;
71513;SDS011;59335;46.652;21.272;2022-12-11T16:03:37;6.40;;;3.42;;
71513;SDS011;59335;46.652;21.272;2022-12-11T16:06:40;6.22;;;3.20;;
71513;SDS011;59335;46.652;21.272;2022-12-11T16:09:46;6.38;;;3.42;;
71513;SDS011;59335;46.652;21.272;2022-12-11T16:12:50;6.43;;;3.37;;
71513;SDS011;59335;46.652;21.272;2022-12-11T16:15:54;6.63;;;3.63;;
71513;SDS011;59335;46.652;21.272;2022-12-11T16:18:59;5.88;;;3.42;;
71513;SDS011;59335;46.652;21.272;2022-12-11T16:22:02;6.43;;;3.40;;
71513;SDS011;59335;46.652;21.272;2022-12-11T16:25:05;6.80;;;3.53;;
71513;SDS011;59335;46.652;21.272;2022-12-11T16:28:10;7.20;;;3.40;;
71513;SDS011;59335;46.652;21.272;2022-12-11T16:31:14;6.18;;;3.53;;
71513;SDS011;59335;46.652;21.272;2022-12-11T16:34:23;6.13;;;3.50;;
71513;SDS011;59335;46.652;21.272;2022-12-11T16:37:26;6.10;;;3.42;;
71513;SDS011;59335;46.652;21.272;2022-12-11T16:40:30;7.13;;;3.80;;
71513;SDS011;59335;46.652;21.272;2022-12-11T16:43:34;6.83;;;3.20;;
71513;SDS011;59335;46.652;21.272;2022-12-11T16:46:37;6.30;;;3.17;;
71513;SDS011;59335;46.652;21.272;2022-12-11T16:49:40;6.07;;;3.38;;
71513;SDS011;59335;46.652;21.272;2022-12-11T16:52:45;6.07;;;3.20;;
71513;SDS011;59335;46.652;21.272;2022-12-11T16:55:48;6.50;;;3.58;;
71513;SDS011;59335;46.652;21.272;2022-12-11T16:58:51;6.37;;;3.50;;
71513;SDS011;59335;46.652;21.272;2022-12-11T17:01:54;6.47;;;3.38;;
71513;SDS011;59335;46.652;21.272;2022-12-11T17:04:57;6.75;;;3.70;;
71513;SDS011;59335;46.652;21.272;2022-12-11T17:08:00;5.85;;;3.10;;
71513;SDS011;59335;46.652;21.272;2022-12-11T17:11:06;6.57;;;3.40;;
71513;SDS011;59335;46.652;21.272;2022-12-11T17:14:11;6.10;;;3.20;;
71513;SDS011;59335;46.652;21.272;2022-12-11T17:17:14;6.35;;;3.22;;
71513;SDS011;59335;46.652;21.272;2022-12-11T17:20:20;6.03;;;3.38;;
71513;SDS011;59335;46.652;21.272;2022-12-11T17:23:22;6.63;;;3.53;;
71513;SDS011;59335;46.652;21.272;2022-12-11T17:26:25;7.03;;;3.38;;
71513;SDS011;59335;46.652;21.272;2022-12-11T17:29:30;5.97;;;3.43;;
71513;SDS011;59335;46.652;21.272;2022-12-11T17:32:33;6.00;;;3.30;;
71513;SDS011;59335;46.652;21.272;2022-12-11T17:35:36;6.18;;;3.42;;
71513;SDS011;59335;46.652;21.272;2022-12-11T17:38:43;6.10;;;3.17;;
71513;SDS011;59335;46.652;21.272;2022-12-11T17:41:47;7.18;;;3.78;;
71513;SDS011;59335;46.652;21.272;2022-12-11T17:44:50;7.37;;;3.90;;
71513;SDS011;59335;46.652;21.272;2022-12-11T17:47:55;6.55;;;3.83;;
71513;SDS011;59335;46.652;21.272;2022-12-11T17:51:01;7.30;;;3.80;;
71513;SDS011;59335;46.652;21.272;2022-12-11T17:54:06;6.18;;;3.72;;
71513;SDS011;59335;46.652;21.272;2022-12-11T17:57:09;6.60;;;3.55;;
71513;SDS011;59335;46.652;21.272;2022-12-11T18:00:13;6.93;;;3.50;;
71513;SDS011;59335;46.652;21.272;2022-12-11T18:03:17;6.32;;;3.50;;
71513;SDS011;59335;46.652;21.272;2022-12-11T18:06:20;6.25;;;3.70;;
71513;SDS011;59335;46.652;21.272;2022-12-11T18:09:25;7.10;;;3.80;;
71513;SDS011;59335;46.652;21.272;2022-12-11T18:12:28;7.00;;;3.63;;
71513;SDS011;59335;46.652;21.272;2022-12-11T18:15:32;6.10;;;3.30;;
71513;SDS011;59335;46.652;21.272;2022-12-11T18:18:36;7.38;;;3.90;;
71513;SDS011;59335;46.652;21.272;2022-12-11T18:21:41;7.43;;;3.50;;
71513;SDS011;59335;46.652;21.272;2022-12-11T18:24:45;7.32;;;3.90;;
71513;SDS011;59335;46.652;21.272;2022-12-11T18:27:50;8.10;;;4.60;;
71513;SDS011;59335;46.652;21.272;2022-12-11T18:31:00;7.10;;;4.13;;
71513;SDS011;59335;46.652;21.272;2022-12-11T18:34:04;7.00;;;4.00;;
71513;SDS011;59335;46.652;21.272;2022-12-11T18:37:08;7.43;;;4.00;;
71513;SDS011;59335;46.652;21.272;2022-12-11T18:40:11;6.93;;;3.95;;
71513;SDS011;59335;46.652;21.272;2022-12-11T18:43:15;7.35;;;4.28;;
71513;SDS011;59335;46.652;21.272;2022-12-11T18:46:21;6.40;;;3.53;;
71513;SDS011;59335;46.652;21.272;2022-12-11T18:49:26;7.85;;;4.10;;
71513;SDS011;59335;46.652;21.272;2022-12-11T18:52:34;7.15;;;4.05;;
71513;SDS011;59335;46.652;21.272;2022-12-11T18:55:41;7.82;;;4.32;;
71513;SDS011;59335;46.652;21.272;2022-12-11T18:58:46;6.75;;;3.67;;
71513;SDS011;59335;46.652;21.272;2022-12-11T19:01:50;7.37;;;3.97;;
71513;SDS011;59335;46.652;21.272;2022-12-11T19:04:56;7.13;;;3.70;;
71513;SDS011;59335;46.652;21.272;2022-12-11T19:07:59;7.03;;;4.10;;
71513;SDS011;59335;46.652;21.272;2022-12-11T19:11:04;7.75;;;4.25;;
71513;SDS011;59335;46.652;21.272;2022-12-11T19:14:07;7.85;;;4.20;;
71513;SDS011;59335;46.652;21.272;2022-12-11T19:17:15;6.77;;;3.80;;
71513;SDS011;59335;46.652;21.272;2022-12-11T19:20:19;6.82;;;3.75;;
71513;SDS011;59335;46.652;21.272;2022-12-11T19:23:43;7.25;;;3.70;;
71513;SDS011;59335;46.652;21.272;2022-12-11T19:26:50;7.60;;;4.07;;
71513;SDS011;59335;46.652;21.272;2022-12-11T19:29:55;6.93;;;3.92;;
71513;SDS011;59335;46.652;21.272;2022-12-11T19:33:01;7.37;;;4.03;;
71513;SDS011;59335;46.652;21.272;2022-12-11T19:36:09;7.25;;;4.30;;
71513;SDS011;59335;46.652;21.272;2022-12-11T19:39:14;7.95;;;4.25;;
71513;SDS011;59335;46.652;21.272;2022-12-11T19:42:21;7.40;;;4.10;;
71513;SDS011;59335;46.652;21.272;2022-12-11T19:45:26;7.15;;;3.78;;
71513;SDS011;59335;46.652;21.272;2022-12-11T19:48:31;6.63;;;3.80;;
71513;SDS011;59335;46.652;21.272;2022-12-11T19:51:37;6.53;;;3.60;;
71513;SDS011;59335;46.652;21.272;2022-12-11T19:54:42;6.50;;;3.80;;
71513;SDS011;59335;46.652;21.272;2022-12-11T19:57:48;7.25;;;4.30;;
71513;SDS011;59335;46.652;21.272;2022-12-11T20:00:53;7.47;;;3.90;;
71513;SDS011;59335;46.652;21.272;2022-12-11T20:03:58;7.83;;;4.03;;